createdAt,value
2018-04-29T00:01:29.643Z,4.10
2018-04-29T00:04:07.905Z,4.68
2018-04-29T00:06:47.131Z,9.05
2018-04-29T00:09:27.468Z,6.50
2018-04-29T00:12:04.548Z,11.05
2018-04-29T00:14:47.012Z,8.63
2018-04-29T00:17:24.991Z,6.68
2018-04-29T00:20:03.589Z,5.10
2018-04-29T00:22:40.130Z,4.12
2018-04-29T00:25:17.504Z,4.70
2018-04-29T00:27:54.075Z,7.30
2018-04-29T00:30:30.535Z,4.68
2018-04-29T00:33:11.062Z,6.32
2018-04-29T00:35:50.455Z,5.45
2018-04-29T00:38:32.436Z,3.83
2018-04-29T00:41:10.485Z,5.10
2018-04-29T00:43:49.832Z,4.20
2018-04-29T00:46:28.224Z,8.48
2018-04-29T00:49:05.859Z,11.50
2018-04-29T00:51:49.631Z,5.75
2018-04-29T00:54:27.195Z,10.38
2018-04-29T00:57:04.004Z,4.60
2018-04-29T00:59:44.780Z,5.37
2018-04-29T01:02:22.259Z,5.62
2018-04-29T01:04:59.169Z,4.97
2018-04-29T01:07:41.710Z,4.80
2018-04-29T01:10:21.557Z,9.10
2018-04-29T01:12:59.231Z,6.00
2018-04-29T01:15:37.631Z,6.75
2018-04-29T01:18:16.650Z,9.55
2018-04-29T01:20:56.858Z,6.43
2018-04-29T01:23:34.865Z,5.28
2018-04-29T01:26:13.513Z,5.93
2018-04-29T01:28:52.337Z,6.50
2018-04-29T01:31:29.417Z,5.35
2018-04-29T01:34:08.368Z,7.00
2018-04-29T01:36:47.717Z,5.10
2018-04-29T01:39:24.372Z,5.50
2018-04-29T01:42:02.256Z,6.03
2018-04-29T01:44:38.900Z,8.13
2018-04-29T01:47:16.764Z,4.85
2018-04-29T01:49:53.611Z,5.15
2018-04-29T01:52:31.292Z,4.82
2018-04-29T01:55:10.872Z,12.00
2018-04-29T01:57:46.986Z,6.93
2018-04-29T02:00:24.008Z,6.25
2018-04-29T02:03:00.985Z,7.40
2018-04-29T02:05:38.281Z,8.68
2018-04-29T02:08:15.095Z,7.37
2018-04-29T02:10:57.994Z,6.18
2018-04-29T02:13:35.800Z,7.75
2018-04-29T02:16:15.010Z,7.07
2018-04-29T02:18:52.839Z,6.95
2018-04-29T02:21:31.253Z,4.95
2018-04-29T02:24:09.101Z,10.50
2018-04-29T02:26:47.790Z,7.87
2018-04-29T02:29:27.287Z,5.22
2018-04-29T02:32:06.317Z,5.07
2018-04-29T02:34:45.197Z,7.47
2018-04-29T02:37:22.649Z,6.22
2018-04-29T02:39:58.661Z,5.85
2018-04-29T02:42:34.164Z,5.70
2018-04-29T02:45:14.815Z,6.87
2018-04-29T02:47:52.983Z,5.05
2018-04-29T02:50:29.735Z,5.90
2018-04-29T02:53:07.751Z,12.63
2018-04-29T02:55:45.381Z,11.82
2018-04-29T02:58:22.223Z,9.27
2018-04-29T03:00:58.240Z,8.30
2018-04-29T03:03:33.995Z,8.00
2018-04-29T03:06:11.221Z,9.98
2018-04-29T03:08:49.375Z,7.97
2018-04-29T03:11:28.818Z,9.55
2018-04-29T03:14:05.611Z,14.98
2018-04-29T03:16:45.684Z,8.23
2018-04-29T03:19:22.218Z,8.38
2018-04-29T03:21:58.759Z,7.45
2018-04-29T03:24:37.340Z,8.52
2018-04-29T03:27:13.883Z,8.02
2018-04-29T03:29:57.973Z,7.90
2018-04-29T03:32:34.500Z,10.60
2018-04-29T03:35:12.023Z,6.22
2018-04-29T03:37:49.068Z,13.68
2018-04-29T03:40:29.086Z,6.30
2018-04-29T03:43:06.439Z,6.60
2018-04-29T03:45:44.972Z,10.60
2018-04-29T03:48:27.940Z,6.70
2018-04-29T03:50:57.938Z,9.00
2018-04-29T03:53:33.761Z,8.77
2018-04-29T03:56:08.562Z,7.00
2018-04-29T03:58:55.985Z,8.70
2018-04-29T04:01:51.281Z,7.47
2018-04-29T04:04:21.101Z,7.00
2018-04-29T04:06:57.932Z,7.62
2018-04-29T04:09:36.505Z,8.32
2018-04-29T04:12:16.177Z,13.75
2018-04-29T04:14:53.384Z,10.63
2018-04-29T04:17:31.943Z,14.13
2018-04-29T04:20:11.256Z,9.10
2018-04-29T04:22:49.388Z,8.63
2018-04-29T04:25:27.520Z,7.43
2018-04-29T04:28:04.035Z,9.85
2018-04-29T04:30:40.745Z,8.23
2018-04-29T04:33:16.127Z,10.65
2018-04-29T04:35:53.055Z,5.10
2018-04-29T04:38:30.004Z,5.18
2018-04-29T04:41:08.438Z,6.18
2018-04-29T04:43:45.285Z,6.28
2018-04-29T04:46:25.799Z,7.65
2018-04-29T04:49:05.269Z,6.25
2018-04-29T04:51:43.275Z,7.10
2018-04-29T04:54:20.686Z,6.37
2018-04-29T04:57:00.327Z,7.47
2018-04-29T04:59:38.800Z,6.68
2018-04-29T05:02:16.422Z,6.55
2018-04-29T05:04:53.192Z,10.68
2018-04-29T05:07:35.232Z,7.28
2018-04-29T05:10:13.322Z,12.93
2018-04-29T05:12:50.608Z,8.88
2018-04-29T05:15:26.687Z,5.65
2018-04-29T05:18:02.216Z,5.90
2018-04-29T05:20:40.155Z,15.82
2018-04-29T05:23:19.032Z,5.37
2018-04-29T05:25:56.513Z,5.85
2018-04-29T05:28:26.385Z,4.55
2018-04-29T05:30:56.633Z,8.57
2018-04-29T05:33:26.614Z,5.12
2018-04-29T05:35:56.187Z,5.93
2018-04-29T05:38:33.104Z,6.57
2018-04-29T05:41:08.838Z,7.65
2018-04-29T05:43:44.088Z,5.50
2018-04-29T05:46:23.346Z,10.57
2018-04-29T05:49:00.388Z,7.28
2018-04-29T06:32:10.091Z,11.27
2018-04-29T06:34:47.669Z,7.15
2018-04-29T06:37:26.509Z,10.77
2018-04-29T06:40:06.399Z,7.20
2018-04-29T06:42:45.582Z,6.65
2018-04-29T06:45:22.780Z,7.55
2018-04-29T06:48:00.250Z,6.35
2018-04-29T06:50:38.574Z,8.80
2018-04-29T06:53:09.153Z,7.12
2018-04-29T06:55:41.006Z,7.55
2018-04-29T06:58:11.798Z,8.40
2018-04-29T07:00:42.210Z,8.23
2018-04-29T07:03:12.663Z,10.40
2018-04-29T07:05:41.898Z,7.95
2018-04-29T07:08:19.313Z,13.48
2018-04-29T07:10:58.958Z,7.82
2018-04-29T07:13:37.976Z,13.50
2018-04-29T07:16:14.731Z,7.78
2018-04-29T07:18:44.610Z,9.80
2018-04-29T07:21:14.751Z,11.02
2018-04-29T07:23:49.195Z,11.40
2018-04-29T07:26:18.724Z,8.20
2018-04-29T07:28:55.139Z,12.70
2018-04-29T07:31:39.273Z,13.57
2018-04-29T07:34:11.863Z,8.60
2018-04-29T07:36:43.544Z,8.93
2018-04-29T07:39:13.570Z,9.60
2018-04-29T07:41:44.662Z,11.10
2018-04-29T07:44:17.442Z,9.55
2018-04-29T07:46:47.457Z,8.70
2018-04-29T07:49:17.213Z,12.90
2018-04-29T07:51:47.947Z,9.48
2018-04-29T07:54:20.113Z,12.37
2018-04-29T07:56:52.663Z,8.50
2018-04-29T07:59:22.585Z,8.55
2018-04-29T08:01:52.924Z,8.73
2018-04-29T08:04:25.536Z,8.95
2018-04-29T08:06:54.738Z,10.02
2018-04-29T08:09:23.607Z,14.45
2018-04-29T08:11:52.961Z,10.88
2018-04-29T08:14:30.416Z,14.77
2018-04-29T08:17:06.296Z,10.48
2018-04-29T08:19:46.087Z,9.32
2018-04-29T08:22:23.413Z,11.20
2018-04-29T08:25:02.636Z,13.18
2018-04-29T08:27:39.906Z,9.73
2018-04-29T08:30:20.605Z,11.70
2018-04-29T08:32:58.011Z,9.90
2018-04-29T08:35:31.812Z,10.35
2018-04-29T08:38:01.634Z,11.20
2018-04-29T08:40:32.465Z,12.55
2018-04-29T08:43:02.371Z,9.65
2018-04-29T08:45:32.022Z,13.93
2018-04-29T08:48:02.573Z,9.85
2018-04-29T08:50:32.478Z,10.70
2018-04-29T08:53:03.780Z,12.75
2018-04-29T08:55:33.346Z,11.40
2018-04-29T08:58:04.460Z,15.20
2018-04-29T09:00:35.146Z,11.30
2018-04-29T09:03:07.114Z,11.82
2018-04-29T09:05:37.043Z,11.05
2018-04-29T09:08:08.181Z,15.02
2018-04-29T09:10:40.091Z,12.15
2018-04-29T09:13:10.270Z,13.15
2018-04-29T09:15:40.906Z,10.35
2018-04-29T09:18:11.839Z,9.47
2018-04-29T09:20:41.790Z,14.47
2018-04-29T09:23:12.077Z,11.63
2018-04-29T09:25:41.709Z,12.63
2018-04-29T09:28:12.653Z,8.02
2018-04-29T09:30:43.150Z,9.63
2018-04-29T09:33:15.403Z,7.97
2018-04-29T09:35:47.406Z,8.40
2018-04-29T09:38:20.471Z,13.70
2018-04-29T09:40:53.743Z,15.83
2018-04-29T09:43:24.567Z,6.63
2018-04-29T09:45:55.207Z,7.40
2018-04-29T09:48:26.113Z,9.70
2018-04-29T09:50:58.382Z,10.40
2018-04-29T09:53:28.292Z,8.67
2018-04-29T09:56:07.338Z,13.60
2018-04-29T09:58:45.093Z,7.20
2018-04-29T10:01:25.510Z,9.70
2018-04-29T10:04:08.908Z,9.00
2018-04-29T10:06:47.234Z,9.43
2018-04-29T10:09:16.200Z,8.88
2018-04-29T10:11:47.122Z,9.30
2018-04-29T10:14:18.195Z,8.50
2018-04-29T10:16:47.342Z,11.93
2018-04-29T10:19:17.249Z,9.10
2018-04-29T10:21:47.811Z,9.45
2018-04-29T10:24:18.622Z,6.82
2018-04-29T10:26:49.079Z,9.45
2018-04-29T10:29:19.994Z,8.13
2018-04-29T10:31:49.978Z,7.07
2018-04-29T10:34:20.095Z,7.47
2018-04-29T10:36:52.271Z,9.83
2018-04-29T10:39:22.616Z,9.50
2018-04-29T10:41:52.814Z,6.80
2018-04-29T10:44:22.675Z,8.47
2018-04-29T10:46:53.490Z,9.90
2018-04-29T10:49:23.697Z,10.37
2018-04-29T10:51:53.939Z,7.37
2018-04-29T10:54:24.202Z,5.87
2018-04-29T10:56:54.127Z,7.60
2018-04-29T10:59:23.885Z,6.73
2018-04-29T11:01:53.877Z,7.20
2018-04-29T11:04:24.110Z,11.53
2018-04-29T11:06:54.215Z,6.10
2018-04-29T11:09:24.535Z,13.70
2018-04-29T11:11:55.308Z,8.53
2018-04-29T11:14:25.750Z,7.30
2018-04-29T11:16:56.675Z,6.90
2018-04-29T11:19:27.590Z,6.50
2018-04-29T11:21:59.723Z,8.50
2018-04-29T11:24:32.044Z,9.17
2018-04-29T11:27:03.729Z,8.90
2018-04-29T11:29:33.501Z,6.67
2018-04-29T11:32:03.956Z,7.63
2018-04-29T11:34:34.801Z,6.33
2018-04-29T11:37:12.640Z,10.30
2018-04-29T11:39:43.947Z,6.77
2018-04-29T11:42:14.497Z,8.77
2018-04-29T11:44:45.251Z,7.30
2018-04-29T11:47:16.273Z,10.80
2018-04-29T11:49:47.605Z,10.63
2018-04-29T11:52:24.653Z,10.90
2018-04-29T11:54:56.486Z,7.50
2018-04-29T11:57:28.061Z,8.13
2018-04-29T11:59:59.685Z,7.87
2018-04-29T12:02:30.469Z,7.57
2018-04-29T12:05:00.941Z,8.80
2018-04-29T12:07:32.325Z,10.93
2018-04-29T12:10:04.428Z,13.43
2018-04-29T12:12:35.872Z,9.73
2018-04-29T12:15:07.068Z,7.20
2018-04-29T12:17:38.090Z,6.63
2018-04-29T12:20:08.571Z,10.07
2018-04-29T12:22:39.757Z,8.07
2018-04-29T12:25:10.986Z,6.00
2018-04-29T12:27:42.151Z,6.73
2018-04-29T12:30:13.243Z,9.83
2018-04-29T12:32:43.801Z,8.50
2018-04-29T12:35:14.854Z,7.70
2018-04-29T12:37:46.262Z,11.57
2018-04-29T12:40:17.953Z,6.23
2018-04-29T12:42:49.067Z,10.70
2018-04-29T12:45:19.585Z,6.60
2018-04-29T12:47:50.974Z,7.90
2018-04-29T12:50:22.914Z,6.90
2018-04-29T12:52:54.286Z,5.63
2018-04-29T12:55:24.747Z,5.80
2018-04-29T12:57:57.425Z,9.33
2018-04-29T13:00:27.801Z,7.20
2018-04-29T13:05:40.455Z,5.60
2018-04-29T13:08:11.552Z,5.37
2018-04-29T13:10:43.382Z,5.10
2018-04-29T13:13:15.541Z,7.97
2018-04-29T13:15:51.897Z,5.43
2018-04-29T13:18:22.155Z,5.27
2018-04-29T13:20:58.233Z,4.90
2018-04-29T13:23:28.783Z,4.30
2018-04-29T13:26:00.549Z,5.20
2018-04-29T13:28:31.647Z,10.10
2018-04-29T13:31:03.171Z,8.67
2018-04-29T13:33:34.339Z,6.63
2018-04-29T13:36:07.209Z,5.53
2018-04-29T13:38:37.925Z,4.27
2018-04-29T13:41:08.660Z,9.87
2018-04-29T13:43:48.609Z,3.97
2018-04-29T13:46:20.837Z,7.00
2018-04-29T13:48:52.586Z,3.53
2018-04-29T13:51:24.133Z,4.13
2018-04-29T13:53:56.033Z,8.10
2018-04-29T13:56:29.047Z,8.10
2018-04-29T13:59:01.445Z,4.30
2018-04-29T14:01:32.428Z,3.90
2018-04-29T14:04:03.390Z,8.40
2018-04-29T14:06:34.812Z,5.80
2018-04-29T14:09:05.297Z,5.57
2018-04-29T14:11:37.184Z,5.57
2018-04-29T14:14:08.529Z,4.30
2018-04-29T14:16:40.131Z,5.20
2018-04-29T14:19:11.892Z,5.83
2018-04-29T14:21:43.005Z,4.77
2018-04-29T14:24:20.141Z,6.93
2018-04-29T14:26:51.513Z,4.40
2018-04-29T14:29:22.129Z,6.53
2018-04-29T14:32:02.495Z,7.63
2018-04-29T14:34:33.619Z,7.30
2018-04-29T14:37:04.413Z,7.63
2018-04-29T14:39:41.334Z,6.37
2018-04-29T14:42:12.278Z,10.00
2018-04-29T14:44:42.738Z,7.00
2018-04-29T14:47:12.444Z,5.47
2018-04-29T14:49:43.337Z,4.43
2018-04-29T14:52:13.152Z,4.93
2018-04-29T14:54:56.875Z,6.07
2018-04-29T14:57:36.678Z,4.63
2018-04-29T15:00:15.817Z,9.73
2018-04-29T15:02:46.365Z,7.30
2018-04-29T15:05:17.414Z,6.17
2018-04-29T15:07:46.531Z,6.37
2018-04-29T15:10:22.907Z,4.73
2018-04-29T15:12:52.881Z,5.67
2018-04-29T15:15:23.325Z,7.10
2018-04-29T15:17:52.503Z,6.50
2018-04-29T15:20:30.251Z,6.27
2018-04-29T15:23:08.105Z,5.20
2018-04-29T15:25:47.660Z,5.80
2018-04-29T15:28:25.580Z,5.03
2018-04-29T15:30:54.682Z,8.80
2018-04-29T15:33:24.558Z,4.80
2018-04-29T15:35:54.354Z,8.13
2018-04-29T15:38:25.027Z,3.90
2018-04-29T15:40:55.130Z,3.80
2018-04-29T15:43:34.502Z,5.53
2018-04-29T15:46:03.603Z,9.47
2018-04-29T15:48:40.724Z,10.73
2018-04-29T15:51:11.283Z,5.40
2018-04-29T15:53:40.922Z,7.10
2018-04-29T15:56:21.168Z,6.50
2018-04-29T15:58:50.196Z,10.70
2018-04-29T16:01:21.255Z,8.53
2018-04-29T16:03:57.757Z,10.03
2018-04-29T16:06:27.242Z,12.70
2018-04-29T16:09:00.863Z,10.90
2018-04-29T16:11:30.474Z,16.97
2018-04-29T16:14:00.623Z,7.07
2018-04-29T16:16:40.368Z,5.63
2018-04-29T16:19:13.292Z,9.93
2018-04-29T16:21:48.236Z,6.30
2018-04-29T16:24:18.138Z,7.13
2018-04-29T16:26:51.928Z,6.73
2018-04-29T16:29:21.198Z,9.17
2018-04-29T16:31:52.667Z,5.23
2018-04-29T16:34:31.004Z,10.17
2018-04-29T16:37:00.740Z,8.40
2018-04-29T16:39:31.217Z,9.65
2018-04-29T16:42:01.085Z,4.00
2018-04-29T16:44:33.196Z,5.87
2018-04-29T16:47:03.253Z,14.10
2018-04-29T16:49:33.517Z,11.80
2018-04-29T16:52:03.261Z,6.43
2018-04-29T16:54:34.662Z,5.07
2018-04-29T16:57:04.374Z,7.53
2018-04-29T16:59:34.800Z,11.77
2018-04-29T17:02:04.594Z,5.60
2018-04-29T17:04:34.699Z,12.07
2018-04-29T17:07:04.684Z,7.10
2018-04-29T17:09:35.796Z,5.47
2018-04-29T17:12:07.935Z,5.53
2018-04-29T17:14:38.172Z,5.43
2018-04-29T17:17:10.717Z,9.23
2018-04-29T17:19:42.946Z,12.80
2018-04-29T17:22:13.703Z,5.13
2018-04-29T17:24:43.484Z,7.00
2018-04-29T17:27:13.554Z,7.87
2018-04-29T17:29:42.553Z,7.00
2018-04-29T17:32:20.970Z,6.60
2018-04-29T17:34:58.175Z,12.73
2018-04-29T17:37:27.997Z,9.13
2018-04-29T17:39:58.146Z,5.40
2018-04-29T17:42:29.207Z,10.63
2018-04-29T17:44:59.527Z,7.10
2018-04-29T17:47:29.886Z,6.83
2018-04-29T17:50:00.363Z,18.00
2018-04-29T17:52:31.186Z,7.47
2018-04-29T17:55:01.978Z,9.13
2018-04-29T17:57:31.894Z,11.20
2018-04-29T18:00:02.674Z,6.90
2018-04-29T18:02:34.200Z,27.33
2018-04-29T18:05:06.511Z,15.20
2018-04-29T18:07:39.291Z,5.97
2018-04-29T18:10:12.060Z,7.00
2018-04-29T18:12:43.107Z,8.73
2018-04-29T18:15:14.298Z,10.77
2018-04-29T18:17:44.463Z,7.73
2018-04-29T18:20:15.246Z,9.30
2018-04-29T18:22:45.531Z,7.27
2018-04-29T18:25:16.338Z,13.83
2018-04-29T18:27:46.537Z,10.10
2018-04-29T18:30:17.690Z,15.63
2018-04-29T18:32:47.860Z,12.87
2018-04-29T18:35:17.595Z,10.50
2018-04-29T18:37:48.171Z,15.87
2018-04-29T18:40:17.901Z,10.83
2018-04-29T18:42:49.039Z,8.33
2018-04-29T18:45:19.656Z,13.83
2018-04-29T18:47:48.714Z,9.23
2018-04-29T18:50:26.692Z,15.53
2018-04-29T18:52:56.558Z,7.13
2018-04-29T18:55:26.689Z,9.53
2018-04-29T18:58:02.551Z,16.40
2018-04-29T19:00:40.575Z,21.67
2018-04-29T19:03:10.718Z,17.53
2018-04-29T19:05:47.430Z,18.33
2018-04-29T19:21:23.722Z,9.03
2018-04-29T19:23:53.483Z,13.03
2018-04-29T19:26:21.771Z,8.23
2018-04-29T19:28:59.435Z,7.30
2018-04-29T19:31:29.479Z,9.07
2018-04-29T19:33:59.417Z,12.40
2018-04-29T19:36:30.257Z,9.60
2018-04-29T19:39:00.777Z,8.30
2018-04-29T19:41:30.819Z,12.50
2018-04-29T19:44:01.253Z,14.50
2018-04-29T19:46:30.476Z,6.43
2018-04-29T19:49:08.981Z,10.63
2018-04-29T19:51:48.586Z,10.57
2018-04-29T19:54:26.655Z,5.40
2018-04-29T19:56:56.428Z,10.53
2018-04-29T19:59:26.245Z,5.30
2018-04-29T20:01:56.205Z,5.73
2018-04-29T20:04:26.580Z,8.63
2018-04-29T20:06:57.354Z,5.77
2018-04-29T20:09:27.881Z,8.20
2018-04-29T20:12:05.026Z,17.13
2018-04-29T20:14:43.931Z,10.57
2018-04-29T20:17:26.226Z,8.73
2018-04-29T20:20:02.795Z,14.70
2018-04-29T20:22:32.750Z,8.60
2018-04-29T20:25:11.041Z,8.70
2018-04-29T20:27:50.891Z,21.40
2018-04-29T20:30:27.344Z,10.00
2018-04-29T20:33:03.516Z,18.73
2018-04-29T20:35:40.456Z,8.90
2018-04-29T20:38:18.333Z,13.10
2018-04-29T20:40:55.913Z,8.23
2018-04-29T20:43:33.489Z,11.20
2018-04-29T20:46:13.448Z,10.10
2018-04-29T20:48:51.446Z,8.27
2018-04-29T20:51:28.473Z,9.03
2018-04-29T20:54:07.236Z,8.77
2018-04-29T20:56:45.614Z,8.73
2018-04-29T20:59:23.427Z,8.73
2018-04-29T21:02:03.156Z,9.37
2018-04-29T21:04:33.160Z,11.87
2018-04-29T21:07:02.702Z,15.63
2018-04-29T21:09:33.072Z,17.60
2018-04-29T21:12:10.187Z,23.83
2018-04-29T21:14:47.532Z,26.97
2018-04-29T21:17:27.785Z,24.60
2018-04-29T21:19:57.036Z,36.27
2018-04-29T21:22:26.718Z,33.63
2018-04-29T21:24:56.540Z,34.85
2018-04-29T21:27:25.484Z,42.07
2018-04-29T21:29:55.067Z,35.90
2018-04-29T21:32:25.297Z,44.25
2018-04-29T21:35:03.968Z,47.88
2018-04-29T21:37:35.143Z,44.47
2018-04-29T21:40:06.641Z,45.83
2018-04-29T21:45:13.654Z,54.47
2018-04-29T21:47:44.306Z,49.17
2018-04-29T21:50:14.789Z,60.50
2018-04-29T21:52:45.803Z,56.33
2018-04-29T21:55:18.234Z,63.42
2018-04-29T21:57:49.903Z,54.13
2018-04-29T22:00:21.453Z,35.30
2018-04-29T22:02:53.173Z,42.13
2018-04-29T22:05:25.140Z,40.03
2018-04-29T22:07:56.248Z,46.40
2018-04-29T22:10:26.614Z,45.25
2018-04-29T22:12:57.770Z,54.35
2018-04-29T22:15:29.792Z,48.53
2018-04-29T22:18:00.326Z,46.78
2018-04-29T22:20:31.143Z,45.67
2018-04-29T22:23:02.301Z,54.80
2018-04-29T22:25:33.237Z,53.25
2018-04-29T22:28:04.060Z,54.42
2018-04-29T22:30:36.203Z,48.45
2018-04-29T22:33:07.253Z,47.42
2018-04-29T22:35:37.949Z,49.33
2018-04-29T22:38:08.571Z,37.10
2018-04-29T22:40:37.589Z,40.00
2018-04-29T22:43:07.711Z,43.15
2018-04-29T22:45:39.859Z,50.88
2018-04-29T22:48:09.651Z,37.90
2018-04-29T22:50:40.637Z,35.15
2018-04-29T22:53:10.768Z,30.33
2018-04-29T22:55:40.921Z,22.87
2018-04-29T22:58:11.335Z,33.60
2018-04-29T23:00:41.090Z,30.00
2018-04-29T23:03:11.689Z,25.83
2018-04-29T23:05:44.298Z,32.28
2018-04-29T23:08:14.190Z,24.00
2018-04-29T23:10:44.348Z,20.77
2018-04-29T23:13:16.266Z,21.12
2018-04-29T23:15:47.221Z,22.33
2018-04-29T23:18:17.444Z,25.55
2018-04-29T23:20:47.921Z,26.45
2018-04-29T23:23:18.169Z,22.40
2018-04-29T23:25:49.037Z,16.70
2018-04-29T23:28:21.002Z,12.27
2018-04-29T23:30:51.842Z,18.05
2018-04-29T23:33:21.527Z,14.30
2018-04-29T23:35:52.580Z,18.50
2018-04-29T23:38:24.354Z,18.17
2018-04-29T23:40:54.618Z,18.58
2018-04-29T23:43:26.458Z,20.30
2018-04-29T23:45:58.424Z,19.25
2018-04-29T23:48:27.947Z,24.65
2018-04-29T23:50:57.756Z,22.23
2018-04-29T23:53:41.210Z,23.10
2018-04-29T23:56:18.773Z,20.60
2018-04-29T23:58:48.520Z,18.37
